M.izmir — 9HLE8 — position and weather

sailwx.info

Track history (hours):
 
Tides and Currents Weather Stations Pressure Air Temp Water Temp Dewpoint Dewpoint Depression Visibility Wind Speed Wind Dir Waves Ship Positions

M.izmir

Last reported at 2018-May-18 06:27 UTC. Time now 2018-May-23 15:12 UTC.
Position N 39°50' E 025°49'.

Length 112 m; draft 6.3 m.

Type: Cargo ship. MMSI: 256109000.

Date/timePositionNaut miles runAvg speedWind from/ knotsBaromVisibWave heightAir tempDewpointWater temp
2018-May-18 06:27N 39°50' E 025°49'32 9.6
2018-May-18 03:10N 39°43' E 025°09'2 9.6
2018-May-18 03:00N 39°42' E 025°07'5 9.6
2018-May-18 02:30N 39°41' E 025°01'5 9.5
2018-May-18 02:00N 39°40' E 024°55'5 9.5
2018-May-18 01:30N 39°39' E 024°49'5 9.6
2018-May-18 01:00N 39°38' E 024°43'5 9.6
2018-May-18 00:30N 39°38' E 024°37'5 9.2
2018-May-18 00:00N 39°37' E 024°31'12 9.1
2018-May-17 22:42N 39°35' E 024°15'2 9.3
2018-May-17 22:30N 39°34' E 024°13'5 9.5
2018-May-17 21:59N 39°33' E 024°07'510.0
2018-May-17 21:28N 39°30' E 024°02'610.2
2018-May-17 20:52N 39°27' E 023°55'510.4
2018-May-17 20:22N 39°25' E 023°49'  
2018-May-11 18:43N 37°35' E 024°12'  
Track history (hours):
 
Tides and Currents Weather Stations Pressure Air Temp Water Temp Dewpoint Dewpoint Depression Visibility Wind Speed Wind Dir Waves Ship Positions

M.izmir

Last reported at 2018-May-18 06:27 UTC. Time now 2018-May-23 15:12 UTC.
Position N 39°50' E 025°49'.

Length 112 m; draft 6.3 m.

Type: Cargo ship. MMSI: 256109000.

Date/timePositionNaut miles runAvg speedWind from/ knotsBaromVisibWave heightAir tempDewpointWater temp
2018-May-18 06:27N 39°50' E 025°49'32 9.6
2018-May-18 03:10N 39°43' E 025°09'2 9.6
2018-May-18 03:00N 39°42' E 025°07'5 9.6
2018-May-18 02:30N 39°41' E 025°01'5 9.5
2018-May-18 02:00N 39°40' E 024°55'5 9.5
2018-May-18 01:30N 39°39' E 024°49'5 9.6
2018-May-18 01:00N 39°38' E 024°43'5 9.6
2018-May-18 00:30N 39°38' E 024°37'5 9.2
2018-May-18 00:00N 39°37' E 024°31'12 9.1
2018-May-17 22:42N 39°35' E 024°15'2 9.3
2018-May-17 22:30N 39°34' E 024°13'5 9.5
2018-May-17 21:59N 39°33' E 024°07'510.0
2018-May-17 21:28N 39°30' E 024°02'610.2
2018-May-17 20:52N 39°27' E 023°55'510.4
2018-May-17 20:22N 39°25' E 023°49'  
2018-May-11 18:43N 37°35' E 024°12'  

Dump ship's entire track history